Time;durP1;ratioP1;P1;durP2;ratioP2;P2;SDS_P1;SDS_P2;PMS_P1;PMS_P2;Temp;Humidity;BMP_temperature;BMP_pressure;BME280_temperature;BME280_humidity;BME280_pressure;Samples;Min_cycle;Max_cycle;Signal;HPM_P1;HPM_P2
2022/04/06 00:01:00;;;;;;;9.25;8.30;;;9.20;99.90;;;;;;5055845;28;20116;-89
2022/04/06 00:03:27;;;;;;;9.90;8.85;;;9.20;99.90;;;;;;5053223;28;20107;-90
2022/04/06 00:05:54;;;;;;;9.88;8.93;;;9.20;99.90;;;;;;5052907;28;20544;-90
2022/04/06 00:08:21;;;;;;;9.75;8.75;;;9.20;99.90;;;;;;5053244;28;20049;-89
2022/04/06 00:10:47;;;;;;;10.95;9.80;;;9.20;99.90;;;;;;5052457;28;20057;-89
2022/04/06 00:13:14;;;;;;;10.75;9.65;;;9.30;99.90;;;;;;5053168;28;20083;-90
2022/04/06 00:15:41;;;;;;;11.30;10.13;;;9.30;99.90;;;;;;5053224;28;20099;-89
2022/04/06 00:18:09;;;;;;;11.27;10.18;;;9.20;99.90;;;;;;5053256;28;20045;-88
2022/04/06 00:20:36;;;;;;;11.48;10.38;;;9.30;99.90;;;;;;5053771;28;20049;-89
2022/04/06 00:23:03;;;;;;;11.70;10.50;;;9.20;99.90;;;;;;5052578;28;20394;-90
2022/04/06 00:25:30;;;;;;;10.88;9.88;;;9.20;99.90;;;;;;5052714;28;20045;-90
2022/04/06 00:27:56;;;;;;;10.25;9.30;;;9.20;99.90;;;;;;5052635;28;20080;-89
2022/04/06 00:30:23;;;;;;;8.07;7.30;;;9.20;99.90;;;;;;5053604;28;20405;-90
2022/04/06 00:32:50;;;;;;;7.10;6.40;;;9.20;99.90;;;;;;5052480;28;20139;-88
2022/04/06 00:35:28;;;;;;;7.25;6.68;;;9.20;99.90;;;;;;5052307;28;20076;-89
2022/04/06 00:38:00;;;;;;;6.38;5.78;;;9.30;99.90;;;;;;5052389;28;20454;-93
2022/04/06 00:40:27;;;;;;;5.43;5.03;;;9.30;99.90;;;;;;5053591;28;20144;-89
2022/04/06 00:42:54;;;;;;;5.57;5.18;;;9.40;99.90;;;;;;5053383;28;20045;-90
2022/04/06 00:45:22;;;;;;;5.32;4.85;;;9.50;99.90;;;;;;5052465;28;20059;-89
2022/04/06 00:47:50;;;;;;;5.60;5.10;;;9.50;99.90;;;;;;5052001;28;20040;-92
2022/04/06 00:50:18;;;;;;;5.05;4.65;;;9.50;99.90;;;;;;5052048;28;20059;-89
2022/04/06 00:52:50;;;;;;;6.18;5.60;;;9.60;99.90;;;;;;5052403;28;20105;-90
2022/04/06 00:55:17;;;;;;;5.68;5.18;;;9.60;99.90;;;;;;5052279;28;20060;-89
2022/04/06 00:57:44;;;;;;;5.30;4.90;;;9.60;99.90;;;;;;5052546;28;20084;-91
2022/04/06 01:00:11;;;;;;;6.45;5.88;;;9.60;99.90;;;;;;5052808;28;20047;-89
2022/04/06 01:02:38;;;;;;;9.25;7.10;;;9.60;99.90;;;;;;5051717;28;20153;-89
2022/04/06 01:05:06;;;;;;;9.35;7.65;;;9.50;99.90;;;;;;5051984;28;20053;-89
2022/04/06 01:07:33;;;;;;;8.70;7.82;;;9.50;99.90;;;;;;5052312;28;20535;-89
2022/04/06 01:10:00;;;;;;;10.40;8.50;;;9.60;99.90;;;;;;5053104;28;20049;-89
2022/04/06 01:12:29;;;;;;;9.98;9.07;;;9.60;99.90;;;;;;5053194;28;20052;-90
2022/04/06 01:14:56;;;;;;;8.07;7.35;;;9.60;99.90;;;;;;5051684;28;20056;-89
2022/04/06 01:17:22;;;;;;;9.00;8.20;;;9.50;99.90;;;;;;5051830;28;20527;-90
2022/04/06 01:19:51;;;;;;;9.30;8.40;;;9.50;99.90;;;;;;5052006;28;20167;-90
2022/04/06 01:22:19;;;;;;;13.88;9.60;;;9.50;99.90;;;;;;5052197;28;20052;-88
2022/04/06 01:24:48;;;;;;;10.07;9.05;;;9.50;99.90;;;;;;5051760;28;20485;-89
2022/04/06 01:27:15;;;;;;;9.00;8.20;;;9.50;99.90;;;;;;5052000;28;20053;-89
2022/04/06 01:29:43;;;;;;;8.68;7.95;;;9.50;99.90;;;;;;5051458;28;20063;-89
2022/04/06 01:32:17;;;;;;;8.63;7.82;;;9.50;99.90;;;;;;5051754;28;20159;-89
2022/04/06 01:34:45;;;;;;;8.30;7.55;;;9.50;99.90;;;;;;5052086;28;20128;-89
2022/04/06 01:37:13;;;;;;;14.10;9.40;;;9.50;99.90;;;;;;5054533;28;20469;-88
2022/04/06 01:39:43;;;;;;;10.38;8.57;;;9.40;99.90;;;;;;5053144;28;20056;-89
2022/04/06 01:42:12;;;;;;;8.82;7.93;;;9.50;99.90;;;;;;5051862;28;20182;-89
2022/04/06 01:44:39;;;;;;;10.13;9.15;;;9.50;99.90;;;;;;5052529;28;20156;-89
2022/04/06 01:47:07;;;;;;;9.45;8.55;;;9.40;99.90;;;;;;5053179;28;20128;-89
2022/04/06 01:52:21;;;;;;;9.32;8.43;;;9.40;99.90;;;;;;5052656;28;20067;-90
2022/04/06 01:54:51;;;;;;;9.32;8.43;;;9.50;99.90;;;;;;5051289;28;20095;-90
2022/04/06 01:57:18;;;;;;;9.38;8.30;;;9.40;99.90;;;;;;5052872;28;20056;-89
2022/04/06 01:59:46;;;;;;;8.95;7.90;;;9.40;99.90;;;;;;5051516;28;20452;-90
2022/04/06 02:02:15;;;;;;;8.27;7.32;;;9.40;99.90;;;;;;5051765;28;20049;-90
2022/04/06 02:04:43;;;;;;;9.00;8.20;;;9.50;99.90;;;;;;5051478;28;20094;-91
2022/04/06 02:07:13;;;;;;;8.85;7.95;;;9.50;99.90;;;;;;5051759;28;20088;-90
2022/04/06 02:09:41;;;;;;;8.15;7.35;;;9.50;99.90;;;;;;5051445;28;20455;-89
2022/04/06 02:12:09;;;;;;;8.38;7.57;;;9.50;99.90;;;;;;5053969;28;20481;-90
2022/04/06 02:14:38;;;;;;;7.65;6.85;;;9.50;99.90;;;;;;5054929;28;20465;-90
2022/04/06 02:17:07;;;;;;;7.45;6.78;;;9.50;99.90;;;;;;5054606;28;20073;-90
2022/04/06 02:19:39;;;;;;;7.57;6.57;;;9.50;99.90;;;;;;5054901;28;20095;-89
2022/04/06 02:22:07;;;;;;;7.45;6.80;;;9.50;99.90;;;;;;5054470;28;20041;-89
2022/04/06 02:24:35;;;;;;;7.65;6.30;;;9.50;99.90;;;;;;5054677;28;20132;-89
2022/04/06 02:27:04;;;;;;;6.93;6.32;;;9.50;99.90;;;;;;5054855;28;20051;-89
2022/04/06 02:29:31;;;;;;;6.82;6.22;;;9.60;99.90;;;;;;5055694;28;20185;-90
2022/04/06 02:31:58;;;;;;;6.57;5.80;;;9.60;99.90;;;;;;5054311;28;20088;-90
2022/04/06 02:34:24;;;;;;;6.38;5.88;;;9.60;99.90;;;;;;5054191;28;20056;-89
2022/04/06 02:36:51;;;;;;;7.10;5.60;;;9.60;99.90;;;;;;5054616;28;20071;-89
2022/04/06 02:39:18;;;;;;;6.63;6.03;;;9.60;99.90;;;;;;5054591;28;20143;-89
2022/04/06 02:41:45;;;;;;;7.55;6.43;;;9.60;99.90;;;;;;5055675;28;20136;-91
2022/04/06 02:44:11;;;;;;;6.80;6.10;;;9.70;99.90;;;;;;5054294;28;20489;-89
2022/04/06 02:46:38;;;;;;;6.40;5.82;;;9.60;99.90;;;;;;5054069;28;20087;-90
2022/04/06 02:49:05;;;;;;;6.75;6.15;;;9.60;99.90;;;;;;5055667;28;20040;-91
2022/04/06 02:51:32;;;;;;;7.10;6.40;;;9.60;99.90;;;;;;5054871;28;20216;-90
2022/04/06 02:53:59;;;;;;;6.90;6.30;;;9.60;99.90;;;;;;5057484;28;20478;-90
2022/04/06 02:56:27;;;;;;;7.35;6.55;;;9.70;99.90;;;;;;5054748;28;20076;-89
2022/04/06 02:58:54;;;;;;;6.75;6.15;;;9.70;99.90;;;;;;5054269;28;20450;-89
2022/04/06 03:01:21;;;;;;;6.75;6.15;;;9.60;99.90;;;;;;5054086;28;20088;-90
2022/04/06 03:03:48;;;;;;;6.72;6.13;;;9.60;99.90;;;;;;5053899;28;20051;-89
2022/04/06 03:06:16;;;;;;;7.15;5.90;;;9.60;99.90;;;;;;5053790;28;20085;-89
2022/04/06 03:08:43;;;;;;;6.55;6.05;;;9.60;99.90;;;;;;5053976;28;20493;-89
2022/04/06 03:11:10;;;;;;;6.13;5.53;;;9.50;99.90;;;;;;5054766;28;20048;-89
2022/04/06 03:13:38;;;;;;;6.28;5.78;;;9.60;99.90;;;;;;5053875;28;20107;-90
2022/04/06 03:16:06;;;;;;;6.55;5.93;;;9.60;99.90;;;;;;5053669;28;20053;-89
2022/04/06 03:18:33;;;;;;;6.10;5.60;;;9.60;99.90;;;;;;5053972;28;20080;-90
2022/04/06 03:21:00;;;;;;;5.85;5.38;;;9.60;99.90;;;;;;5054950;28;20389;-88
2022/04/06 03:23:27;;;;;;;6.00;5.50;;;9.60;99.90;;;;;;5054497;28;20398;-89
2022/04/06 03:25:54;;;;;;;5.65;5.22;;;9.60;99.90;;;;;;5053702;28;20085;-90
2022/04/06 03:28:21;;;;;;;7.75;5.85;;;9.60;99.90;;;;;;5053540;28;20489;-89
2022/04/06 03:30:48;;;;;;;5.53;5.10;;;9.60;99.90;;;;;;5054478;28;20114;-88
2022/04/06 03:33:15;;;;;;;5.75;5.25;;;9.60;99.90;;;;;;5054702;28;20080;-89
2022/04/06 03:35:42;;;;;;;5.43;5.00;;;9.60;99.90;;;;;;5054500;28;20102;-89
2022/04/06 03:38:09;;;;;;;6.07;5.10;;;9.60;99.90;;;;;;5054910;28;20143;-91
2022/04/06 03:40:38;;;;;;;5.25;4.75;;;9.60;99.90;;;;;;5053407;28;20443;-89
2022/04/06 03:43:05;;;;;;;5.47;5.07;;;9.70;99.90;;;;;;5053325;28;20077;-89
2022/04/06 03:45:32;;;;;;;5.35;4.85;;;9.70;99.90;;;;;;5053372;28;20089;-90
2022/04/06 03:47:59;;;;;;;5.78;5.28;;;9.70;99.90;;;;;;5053263;28;20052;-88
2022/04/06 03:50:26;;;;;;;5.38;4.85;;;9.70;99.90;;;;;;5053371;28;20072;-89
2022/04/06 03:52:52;;;;;;;5.32;4.90;;;9.70;99.90;;;;;;5053064;28;20082;-90
2022/04/06 03:55:19;;;;;;;5.65;5.13;;;9.70;99.90;;;;;;5054217;28;20056;-90
2022/04/06 03:57:46;;;;;;;5.53;5.00;;;9.70;99.90;;;;;;5053677;28;20643;-89
2022/04/06 04:00:14;;;;;;;5.00;4.60;;;9.70;99.90;;;;;;5052797;28;20083;-89
2022/04/06 04:02:45;;;;;;;5.40;4.90;;;9.70;99.90;;;;;;5053896;28;20053;-89
2022/04/06 04:05:13;;;;;;;5.47;4.72;;;9.70;99.90;;;;;;5053743;28;20565;-88
2022/04/06 04:07:40;;;;;;;4.88;4.35;;;9.70;99.90;;;;;;5053394;28;20511;-88
2022/04/06 04:10:09;;;;;;;5.18;4.75;;;9.70;99.90;;;;;;5055382;28;20089;-89
2022/04/06 04:12:38;;;;;;;5.35;4.70;;;9.70;99.90;;;;;;5052363;28;20059;-88
2022/04/06 04:15:05;;;;;;;5.20;4.70;;;9.70;99.90;;;;;;5053129;28;20120;-89
2022/04/06 04:17:32;;;;;;;5.50;4.45;;;9.60;99.90;;;;;;5052983;28;20049;-88
2022/04/06 04:19:59;;;;;;;4.53;4.15;;;9.50;99.90;;;;;;5053110;28;20163;-88
2022/04/06 04:22:26;;;;;;;5.95;4.35;;;9.50;99.90;;;;;;5052546;28;20486;-89
2022/04/06 04:24:52;;;;;;;6.13;4.90;;;9.40;99.90;;;;;;5052093;28;20128;-88
2022/04/06 04:27:19;;;;;;;5.07;3.65;;;9.50;99.90;;;;;;5052451;28;20468;-89
2022/04/06 04:29:46;;;;;;;4.97;4.38;;;9.40;99.90;;;;;;5053776;28;20049;-89
2022/04/06 04:32:14;;;;;;;5.32;4.40;;;9.40;99.90;;;;;;5053256;28;20106;-89
2022/04/06 04:34:42;;;;;;;5.35;4.10;;;9.40;99.90;;;;;;5051253;28;20132;-88
2022/04/06 04:37:09;;;;;;;6.45;4.47;;;9.40;99.90;;;;;;5051869;28;20141;-88
2022/04/06 04:39:36;;;;;;;5.05;4.45;;;9.40;99.90;;;;;;5053035;28;20048;-88
2022/04/06 04:42:03;;;;;;;3.83;3.53;;;9.40;99.90;;;;;;5052303;28;20135;-88
2022/04/06 04:44:29;;;;;;;4.55;4.15;;;9.40;99.90;;;;;;5053279;28;20128;-88
2022/04/06 04:46:57;;;;;;;4.53;4.07;;;9.50;99.90;;;;;;5051897;28;20144;-88
2022/04/06 04:49:24;;;;;;;5.10;4.57;;;9.50;99.90;;;;;;5053085;28;20045;-88
2022/04/06 04:51:50;;;;;;;4.68;4.20;;;9.50;99.90;;;;;;5051851;28;20127;-88
2022/04/06 04:54:17;;;;;;;4.57;3.80;;;9.50;99.90;;;;;;5053067;28;20140;-88
2022/04/06 04:56:44;;;;;;;4.30;3.90;;;9.50;99.90;;;;;;5053370;28;20080;-88
2022/04/06 04:59:11;;;;;;;4.55;3.97;;;9.50;99.90;;;;;;5053021;28;20143;-88
2022/04/06 05:01:38;;;;;;;7.15;4.40;;;9.50;99.90;;;;;;5052964;28;20139;-88
2022/04/06 05:04:05;;;;;;;4.65;4.15;;;9.40;99.90;;;;;;5052138;28;20555;-88
2022/04/06 05:06:32;;;;;;;4.57;3.78;;;9.40;99.90;;;;;;5052956;28;20144;-88
2022/04/06 05:08:59;;;;;;;6.20;3.70;;;9.40;99.90;;;;;;5068400;28;20494;-88
2022/04/06 05:11:27;;;;;;;4.53;4.05;;;9.20;99.90;;;;;;5052904;28;20053;-88
2022/04/06 05:13:53;;;;;;;5.13;4.35;;;9.10;99.90;;;;;;5052950;28;20398;-88
2022/04/06 05:16:20;;;;;;;7.50;5.47;;;9.10;99.90;;;;;;5052015;28;20470;-88
2022/04/06 05:18:47;;;;;;;5.68;4.68;;;9.10;99.90;;;;;;5051576;28;20053;-88
2022/04/06 05:21:14;;;;;;;6.43;4.55;;;9.20;99.90;;;;;;5051275;28;20055;-88
2022/04/06 05:23:41;;;;;;;6.80;4.38;;;9.20;99.90;;;;;;5052559;28;20091;-88
2022/04/06 05:26:07;;;;;;;7.60;5.13;;;9.20;99.90;;;;;;5051999;28;20053;-88
2022/04/06 05:28:34;;;;;;;7.15;4.80;;;9.20;99.90;;;;;;5051613;28;20053;-88
2022/04/06 05:31:01;;;;;;;6.32;4.20;;;9.30;99.90;;;;;;5051219;28;20132;-89
2022/04/06 05:33:28;;;;;;;7.38;4.38;;;9.30;99.90;;;;;;5052336;28;20084;-88
2022/04/06 05:35:55;;;;;;;5.65;4.40;;;9.40;99.90;;;;;;5052377;28;20045;-89
2022/04/06 05:38:21;;;;;;;5.63;3.88;;;9.50;99.90;;;;;;5052712;28;20131;-88
2022/04/06 05:40:48;;;;;;;9.18;3.78;;;9.50;99.90;;;;;;5051547;28;20149;-88
2022/04/06 05:43:15;;;;;;;5.32;3.97;;;9.60;99.90;;;;;;5052697;28;20099;-89
2022/04/06 05:45:41;;;;;;;5.15;4.53;;;9.70;99.90;;;;;;5051573;28;20076;-88
2022/04/06 05:48:10;;;;;;;10.57;4.20;;;9.70;99.90;;;;;;5055232;28;20068;-88
2022/04/06 05:50:38;;;;;;;5.10;4.18;;;9.80;99.90;;;;;;5056825;28;20052;-88
2022/04/06 05:53:05;;;;;;;4.25;3.92;;;9.80;99.90;;;;;;5055497;28;20079;-89
2022/04/06 05:55:32;;;;;;;4.78;4.28;;;9.90;99.90;;;;;;5056078;28;20095;-89
2022/04/06 05:57:59;;;;;;;4.60;4.20;;;9.90;99.90;;;;;;5053514;28;20076;-90
2022/04/06 06:00:26;;;;;;;4.60;4.20;;;9.90;99.90;;;;;;5055756;28;20056;-89
2022/04/06 06:02:53;;;;;;;4.90;4.10;;;9.90;99.90;;;;;;5055116;28;20099;-90
2022/04/06 06:05:20;;;;;;;4.30;4.00;;;9.90;99.90;;;;;;5054547;28;20059;-89
2022/04/06 06:07:46;;;;;;;5.03;4.32;;;9.90;99.90;;;;;;5055068;28;20102;-88
2022/04/06 06:10:13;;;;;;;4.47;4.15;;;10.00;99.90;;;;;;5054424;28;20128;-88
2022/04/06 06:12:40;;;;;;;4.97;4.25;;;10.10;99.90;;;;;;5070969;28;20056;-89
2022/04/06 06:15:07;;;;;;;5.00;4.60;;;10.10;99.90;;;;;;5055114;28;20080;-89
2022/04/06 06:17:41;;;;;;;4.25;3.95;;;10.00;99.90;;;;;;5056125;28;20099;-91
2022/04/06 06:20:08;;;;;;;;;;;10.00;99.90;;;;;;5055993;28;20080;-88
2022/04/06 06:22:35;;;;;;;6.13;4.35;;;10.00;99.90;;;;;;5054913;28;20015;-90
2022/04/06 06:25:02;;;;;;;4.40;4.00;;;9.80;99.90;;;;;;5054878;28;20124;-89
2022/04/06 06:27:29;;;;;;;5.20;4.72;;;9.80;99.90;;;;;;5055770;28;20132;-88
2022/04/06 06:29:55;;;;;;;10.57;6.35;;;9.70;99.90;;;;;;5055246;28;20413;-88
2022/04/06 06:32:23;;;;;;;6.45;5.00;;;9.70;99.90;;;;;;5055443;28;20053;-89
2022/04/06 06:34:50;;;;;;;5.78;4.80;;;9.70;99.90;;;;;;5055087;28;20129;-88
2022/04/06 06:37:16;;;;;;;4.13;3.38;;;9.90;99.90;;;;;;5056353;28;20127;-89
2022/04/06 06:39:43;;;;;;;3.15;2.40;;;10.20;99.90;;;;;;5056636;28;20548;-88
2022/04/06 06:42:10;;;;;;;2.90;2.70;;;11.20;99.90;;;;;;5055207;28;20049;-90
2022/04/06 06:44:37;;;;;;;5.45;2.60;;;12.00;99.90;;;;;;5054275;28;20129;-90
2022/04/06 06:47:04;;;;;;;2.88;2.00;;;13.30;99.90;;;;;;5054240;28;20084;-88
2022/04/06 06:49:31;;;;;;;3.45;2.55;;;13.90;99.90;;;;;;5055097;28;20048;-89
2022/04/06 06:51:57;;;;;;;3.33;2.58;;;13.90;99.90;;;;;;5054213;28;20084;-88
2022/04/06 06:54:24;;;;;;;3.15;2.25;;;14.00;99.90;;;;;;5055352;28;20484;-89
2022/04/06 06:56:51;;;;;;;3.67;2.17;;;14.20;99.90;;;;;;5054864;28;20045;-90
2022/04/06 06:59:18;;;;;;;7.10;2.60;;;14.30;99.90;;;;;;5055430;28;20053;-89
2022/04/06 07:01:45;;;;;;;3.95;2.25;;;15.10;99.90;;;;;;5053799;28;20140;-90
2022/04/06 07:04:13;;;;;;;3.50;2.40;;;15.90;97.90;;;;;;5054156;28;20091;-87
2022/04/06 07:06:40;;;;;;;11.68;2.72;;;16.70;95.00;;;;;;5054169;28;20117;-87
2022/04/06 07:09:07;;;;;;;4.53;2.30;;;17.30;92.20;;;;;;5086977;28;20136;-87
2022/04/06 07:11:33;;;;;;;2.83;2.30;;;17.60;88.20;;;;;;5053834;28;20136;-87
2022/04/06 07:14:00;;;;;;;10.63;3.00;;;17.60;83.50;;;;;;5054838;28;20136;-87
2022/04/06 07:16:27;;;;;;;5.38;2.40;;;17.30;84.50;;;;;;5053903;28;20132;-89
2022/04/06 07:18:54;;;;;;;7.15;2.45;;;17.30;86.00;;;;;;5054854;28;20048;-88
2022/04/06 07:21:20;;;;;;;5.28;2.70;;;17.50;86.50;;;;;;5055292;28;20045;-91
2022/04/06 07:23:47;;;;;;;20.20;4.47;;;16.80;84.10;;;;;;5086911;28;20059;-87
2022/04/06 07:26:16;;;;;;;4.43;2.47;;;16.30;85.80;;;;;;5054660;28;20388;-88
2022/04/06 07:28:47;;;;;;;5.30;2.83;;;16.40;85.90;;;;;;5054697;28;20049;-88
2022/04/06 07:31:14;;;;;;;4.45;2.60;;;17.40;85.00;;;;;;5053465;28;20117;-87
2022/04/06 07:33:41;;;;;;;9.68;2.90;;;17.50;82.70;;;;;;5086732;28;20132;-86
2022/04/06 07:36:07;;;;;;;3.10;2.78;;;17.20;83.80;;;;;;5086399;28;20119;-87
2022/04/06 07:38:35;;;;;;;6.43;3.15;;;16.90;83.40;;;;;;5052908;28;20131;-87
2022/04/06 07:41:02;;;;;;;5.07;3.65;;;16.40;85.10;;;;;;5053371;28;20135;-89
2022/04/06 07:43:28;;;;;;;9.30;3.72;;;14.70;90.40;;;;;;5052899;28;20053;-88
2022/04/06 07:45:55;;;;;;;9.20;4.00;;;14.20;93.70;;;;;;5053113;28;20049;-89
2022/04/06 07:48:25;;;;;;;5.53;3.00;;;13.80;94.20;;;;;;5055277;28;20061;-88
2022/04/06 07:50:56;;;;;;;4.07;3.40;;;13.70;95.70;;;;;;5054154;28;20460;-88
2022/04/06 07:53:23;;;;;;;7.22;3.72;;;13.10;98.60;;;;;;5053944;28;20064;-88
2022/04/06 07:55:50;;;;;;;9.60;4.03;;;12.90;99.90;;;;;;5061504;28;20501;-91
2022/04/06 07:58:20;;;;;;;8.65;4.15;;;12.70;99.90;;;;;;5055001;28;20143;-89
2022/04/06 08:00:47;;;;;;;12.45;4.25;;;12.60;99.90;;;;;;5053283;28;20053;-93
2022/04/06 08:03:14;;;;;;;11.95;4.03;;;12.40;99.90;;;;;;5053837;28;20060;-88
2022/04/06 08:05:40;;;;;;;7.28;4.15;;;12.20;99.90;;;;;;5068855;28;20092;-89
2022/04/06 08:08:07;;;;;;;7.55;4.45;;;12.20;99.90;;;;;;5052774;28;20052;-89
2022/04/06 08:10:34;;;;;;;5.95;3.80;;;12.30;99.90;;;;;;5052725;28;20553;-88
2022/04/06 08:13:05;;;;;;;7.90;4.15;;;12.40;99.90;;;;;;5050569;28;20045;-88
2022/04/06 08:15:32;;;;;;;5.97;4.07;;;13.00;99.90;;;;;;5053478;28;20102;-88
2022/04/06 08:17:59;;;;;;;6.38;3.75;;;13.40;99.90;;;;;;5052480;28;20477;-91
2022/04/06 08:20:26;;;;;;;9.82;5.20;;;13.70;99.90;;;;;;5052371;28;20080;-88
2022/04/06 08:22:53;;;;;;;8.13;3.78;;;14.20;99.90;;;;;;5068384;28;20417;-91
2022/04/06 08:25:20;;;;;;;7.35;4.07;;;14.30;99.90;;;;;;5052738;28;20135;-89
2022/04/06 08:28:02;;;;;;;5.55;3.05;;;14.40;99.90;;;;;;5052488;28;20041;-89
2022/04/06 08:30:29;;;;;;;5.45;3.42;;;15.00;99.90;;;;;;5052227;28;20543;-89
2022/04/06 08:32:59;;;;;;;5.85;3.10;;;15.50;97.40;;;;;;5052290;28;20091;-88
2022/04/06 08:35:26;;;;;;;6.20;3.33;;;16.20;95.60;;;;;;5051221;28;20045;-91
2022/04/06 08:37:53;;;;;;;12.23;3.17;;;16.20;94.00;;;;;;5053459;28;20471;-88
2022/04/06 08:40:20;;;;;;;6.60;3.33;;;15.40;93.90;;;;;;5051711;28;20053;-88
2022/04/06 08:42:48;;;;;;;10.82;3.65;;;15.70;94.00;;;;;;5052344;28;20075;-90
2022/04/06 08:45:16;;;;;;;6.55;3.20;;;17.30;92.00;;;;;;5052516;28;20052;-91
2022/04/06 08:47:49;;;;;;;16.88;3.90;;;17.20;89.10;;;;;;5051581;28;20045;-88
2022/04/06 08:50:18;;;;;;;5.65;3.33;;;17.20;88.30;;;;;;5053621;28;20048;-90
2022/04/06 08:52:47;;;;;;;8.65;3.13;;;16.50;88.50;;;;;;5052794;28;20049;-91
2022/04/06 08:55:30;;;;;;;9.40;4.07;;;15.90;88.90;;;;;;5052516;28;20045;-90
2022/04/06 08:57:57;;;;;;;5.20;2.80;;;15.20;88.90;;;;;;5085591;28;20144;-90
2022/04/06 09:00:25;;;;;;;5.43;2.95;;;14.70;91.30;;;;;;5052112;28;20048;-89
2022/04/06 09:02:53;;;;;;;8.50;3.85;;;14.10;93.00;;;;;;5051566;28;20077;-88
2022/04/06 09:05:22;;;;;;;6.97;3.55;;;13.80;94.00;;;;;;5051844;28;20100;-88
2022/04/06 09:07:51;;;;;;;6.30;3.17;;;13.60;95.40;;;;;;5052223;28;20569;-90
2022/04/06 09:10:31;;;;;;;6.35;3.22;;;13.70;95.80;;;;;;5052821;28;20053;-93
2022/04/06 09:13:23;;;;;;;6.45;3.22;;;13.50;95.40;;;;;;5052197;28;20102;-91
2022/04/06 09:15:59;;;;;;;14.43;3.60;;;13.20;97.10;;;;;;5051992;28;20080;-89
2022/04/06 09:18:33;;;;;;;8.10;3.47;;;13.10;97.80;;;;;;5052291;28;20057;-91
2022/04/06 09:21:02;;;;;;;9.00;3.35;;;13.50;97.20;;;;;;5053744;28;20558;-91
2022/04/06 09:23:30;;;;;;;5.72;3.20;;;13.60;96.50;;;;;;5056016;28;20136;-89
2022/04/06 09:26:03;;;;;;;6.57;3.30;;;14.10;95.70;;;;;;5056004;28;20087;-90
2022/04/06 09:28:55;;;;;;;8.45;2.80;;;13.90;94.80;;;;;;5056034;28;20064;-90
2022/04/06 09:31:22;;;;;;;13.98;4.15;;;13.90;95.20;;;;;;5089493;28;20552;-90
2022/04/06 09:33:57;;;;;;;6.72;3.38;;;13.70;95.50;;;;;;5055440;28;20424;-89
2022/04/06 09:36:28;;;;;;;7.35;2.75;;;13.60;95.50;;;;;;5056752;28;20080;-88
2022/04/06 09:38:54;;;;;;;4.95;3.13;;;13.60;96.70;;;;;;5055688;28;20076;-88
2022/04/06 09:41:21;;;;;;;8.35;3.63;;;13.90;96.50;;;;;;5056733;28;20052;-90
2022/04/06 09:43:50;;;;;;;7.03;3.25;;;14.20;95.70;;;;;;5055958;28;20087;-90
2022/04/06 09:49:16;;;;;;;7.82;3.28;;;14.20;95.50;;;;;;5056300;28;20045;-89
2022/04/06 09:51:52;;;;;;;6.25;2.85;;;15.30;95.10;;;;;;5056494;28;20083;-90
2022/04/06 09:54:19;;;;;;;4.07;3.00;;;15.90;92.70;;;;;;5056462;28;20554;-89
2022/04/06 09:56:46;;;;;;;16.33;3.47;;;15.80;91.60;;;;;;5056502;28;20052;-88
2022/04/06 09:59:14;;;;;;;6.38;2.70;;;15.50;91.10;;;;;;5055748;28;20051;-90
2022/04/06 10:01:47;;;;;;;5.25;2.83;;;15.20;91.80;;;;;;5055218;28;20049;-91
2022/04/06 10:04:24;;;;;;;4.38;3.45;;;15.00;92.20;;;;;;5056472;28;20468;-92
2022/04/06 10:06:51;;;;;;;5.35;3.30;;;14.70;92.30;;;;;;5055704;28;20057;-94
2022/04/06 10:09:19;;;;;;;6.55;3.55;;;14.10;93.30;;;;;;5088886;28;20057;-90
2022/04/06 10:11:47;;;;;;;7.32;3.22;;;14.20;94.90;;;;;;5055009;28;20045;-88
2022/04/06 10:14:14;;;;;;;5.20;3.20;;;15.70;93.60;;;;;;5056399;28;20071;-89
2022/04/06 10:16:42;;;;;;;5.43;2.90;;;17.40;90.20;;;;;;5055203;28;20111;-91
2022/04/06 10:19:19;;;;;;;5.85;3.58;;;17.20;86.50;;;;;;5055554;28;20172;-91
2022/04/06 10:21:59;;;;;;;6.50;3.80;;;16.60;85.80;;;;;;5056124;28;20560;-91
2022/04/06 10:24:32;;;;;;;9.07;3.60;;;16.20;88.90;;;;;;5054872;28;20472;-90
2022/04/06 10:27:29;;;;;;;3.72;3.35;;;16.60;87.80;;;;;;5057333;28;20103;-90
2022/04/06 10:30:23;;;;;;;4.80;3.47;;;16.50;87.20;;;;;;5054800;28;20053;-91
2022/04/06 10:32:51;;;;;;;7.65;3.08;;;16.50;87.90;;;;;;5053945;28;20537;-90
2022/04/06 10:35:33;;;;;;;5.90;3.92;;;16.10;88.50;;;;;;5056170;28;20091;-92
2022/04/06 10:38:03;;;;;;;5.78;3.60;;;15.80;89.30;;;;;;5054663;28;20045;-91
2022/04/06 10:40:42;;;;;;;14.85;3.50;;;15.50;89.60;;;;;;5055387;28;20136;-89
2022/04/06 10:43:35;;;;;;;6.18;2.92;;;15.70;90.00;;;;;;5055109;28;20092;-91
2022/04/06 10:46:07;;;;;;;11.90;3.63;;;15.70;89.70;;;;;;5054619;28;20049;-90
2022/04/06 10:48:35;;;;;;;7.63;3.03;;;16.20;87.70;;;;;;5054417;28;20040;-89
2022/04/06 10:51:33;;;;;;;8.27;3.50;;;16.10;87.90;;;;;;5054528;28;20501;-91
2022/04/06 10:54:19;;;;;;;4.20;3.80;;;15.80;87.80;;;;;;5054697;28;20060;-89
2022/04/06 10:56:49;;;;;;;6.43;4.00;;;15.30;90.40;;;;;;5054324;28;20126;-88
2022/04/06 10:59:17;;;;;;;14.95;4.18;;;15.30;90.40;;;;;;5054297;28;20524;-89
2022/04/06 11:01:46;;;;;;;6.55;3.45;;;15.10;91.10;;;;;;5054917;28;20102;-89
2022/04/06 11:04:21;;;;;;;5.53;3.15;;;15.20;91.60;;;;;;5054416;28;20398;-90
2022/04/06 11:06:55;;;;;;;6.32;3.10;;;15.10;91.00;;;;;;5054192;28;20095;-89
2022/04/06 11:12:18;;;;;;;8.68;3.35;;;15.50;91.60;;;;;;5055334;28;19972;-88
2022/04/06 11:14:49;;;;;;;4.47;3.28;;;15.70;90.30;;;;;;5054873;28;20135;-90
2022/04/06 11:20:11;;;;;;;5.10;3.40;;;16.60;88.40;;;;;;5055136;28;20056;-90
2022/04/06 11:22:43;;;;;;;5.90;4.45;;;16.50;89.40;;;;;;5054058;28;20111;-92
2022/04/06 11:25:15;;;;;;;6.53;4.28;;;16.70;88.20;;;;;;5053878;28;20076;-87
2022/04/06 11:27:44;;;;;;;16.58;4.60;;;17.00;85.60;;;;;;5057885;28;20045;-89
2022/04/06 11:30:16;;;;;;;5.85;4.00;;;16.50;87.20;;;;;;5053808;28;20139;-91
2022/04/06 11:33:10;;;;;;;7.30;4.25;;;16.80;87.80;;;;;;5053614;28;20080;-89
2022/04/06 11:35:38;;;;;;;3.90;3.58;;;16.50;89.10;;;;;;5051615;28;20136;-89
2022/04/06 11:38:08;;;;;;;5.50;3.83;;;16.30;89.20;;;;;;5054862;28;20051;-88
2022/04/06 11:40:42;;;;;;;7.57;4.53;;;16.10;89.10;;;;;;5088663;28;20076;-88
2022/04/06 11:43:10;;;;;;;6.25;4.50;;;15.70;90.30;;;;;;5056034;28;20148;-89
2022/04/06 11:45:40;;;;;;;9.13;4.57;;;15.30;91.40;;;;;;5053145;28;20103;-92
2022/04/06 11:48:15;;;;;;;6.50;4.30;;;15.40;92.60;;;;;;5053351;28;20448;-89
2022/04/06 11:50:48;;;;;;;6.00;4.28;;;16.20;92.20;;;;;;5053326;28;20052;-88
2022/04/06 11:53:18;;;;;;;27.25;5.05;;;17.40;90.10;;;;;;5053551;28;20133;-91
2022/04/06 11:55:54;;;;;;;10.40;4.35;;;17.50;85.30;;;;;;5054304;28;20091;-87
2022/04/06 11:58:37;;;;;;;9.23;4.72;;;17.60;84.20;;;;;;5054795;28;20456;-89
2022/04/06 12:01:13;;;;;;;5.72;3.90;;;17.00;84.80;;;;;;5054060;28;20087;-91
2022/04/06 12:03:42;;;;;;;9.65;3.55;;;16.80;87.40;;;;;;5054033;28;20049;-90
2022/04/06 12:06:11;;;;;;;7.63;4.68;;;17.00;88.00;;;;;;5052921;28;20516;-90
2022/04/06 12:08:43;;;;;;;13.05;4.25;;;17.10;85.80;;;;;;5053223;28;20055;-89
2022/04/06 12:11:09;;;;;;;7.03;5.03;;;17.30;86.80;;;;;;5054089;28;20049;-89
2022/04/06 12:13:41;;;;;;;7.53;4.88;;;17.00;86.50;;;;;;5052908;28;20481;-92
2022/04/06 12:16:09;;;;;;;16.65;4.90;;;16.90;86.50;;;;;;5053186;28;20501;-90
2022/04/06 12:18:40;;;;;;;10.90;4.75;;;16.80;86.60;;;;;;5052712;28;20513;-90
2022/04/06 12:21:22;;;;;;;6.68;3.90;;;17.00;87.20;;;;;;5053060;28;20077;-90
2022/04/06 12:23:50;;;;;;;11.73;4.70;;;17.30;86.80;;;;;;5086198;28;20124;-86
2022/04/06 12:26:16;;;;;;;6.97;3.70;;;17.60;82.90;;;;;;5052726;28;20049;-90
2022/04/06 12:28:55;;;;;;;9.07;4.10;;;17.00;82.50;;;;;;5052405;28;20057;-92
2022/04/06 12:31:33;;;;;;;7.85;4.43;;;16.80;85.50;;;;;;5052280;28;20420;-89
2022/04/06 12:34:00;;;;;;;6.80;3.38;;;16.60;84.00;;;;;;5052756;28;20048;-89
2022/04/06 12:36:30;;;;;;;5.47;4.20;;;16.80;84.60;;;;;;5053769;28;20053;-89
2022/04/06 12:39:13;;;;;;;13.10;4.20;;;16.70;82.90;;;;;;5053619;28;20049;-90
2022/04/06 12:42:02;;;;;;;7.28;4.57;;;16.20;84.50;;;;;;5052812;28;20132;-92
2022/04/06 12:44:31;;;;;;;6.40;4.30;;;15.80;86.00;;;;;;5052574;28;20060;-89
2022/04/06 12:46:58;;;;;;;9.85;4.05;;;15.60;87.70;;;;;;5051930;28;20049;-91
2022/04/06 12:49:36;;;;;;;7.18;4.38;;;16.00;89.10;;;;;;5052030;28;20140;-90
2022/04/06 12:52:14;;;;;;;8.23;3.33;;;16.30;86.50;;;;;;5051821;28;20475;-89
2022/04/06 12:54:49;;;;;;;10.43;3.65;;;16.70;85.20;;;;;;5051845;28;20398;-89
2022/04/06 12:57:28;;;;;;;10.25;5.00;;;16.70;84.60;;;;;;5055060;28;20425;-90
2022/04/06 13:00:00;;;;;;;8.75;4.03;;;16.70;84.90;;;;;;5053159;28;20057;-88
2022/04/06 13:02:38;;;;;;;4.75;3.58;;;16.70;84.30;;;;;;5052494;28;20077;-90
2022/04/06 13:05:10;;;;;;;12.43;4.45;;;16.60;85.40;;;;;;5050397;28;20928;-93
2022/04/06 13:07:42;;;;;;;6.63;4.93;;;16.30;85.50;;;;;;5052941;28;20128;-93
2022/04/06 13:10:13;;;;;;;5.65;4.75;;;15.70;86.50;;;;;;5052590;28;20128;-91
2022/04/06 13:12:43;;;;;;;9.55;4.75;;;15.40;87.40;;;;;;5051995;28;20446;-91